Nimbus Weather Services

Informe meteorológico para Carrasco, Uruguay. El informe se hizo hace 42 minutos, a las 23:00 UTC. El viento estaba en calma. La temperatura era 9 °C (48 °F), con un punto de rocío de 3 °C (37 °F). La presión atmosférica era 1021 hPa (30.15 inHg). Había una humedad relativa del 66.0%. Cielo: sin nubes por debajo de 1500 metros (5000 pies) y sin presencia de cumulusnimbos. En aquel momento la visibilidad global era mayor de 10 kilómetros (6.2 millas).

La clave METAR es: SUMU 162300Z 00000KT CAVOK 09/03 Q1021 NOSIG

Consulta realizada el Miércoles 16 de Agosto de 2017 20:42. Tiempo usado para generar esta pagina:2,903 ms.